Ashland, Oregon
Current Conditions -  °F | °C
As of 4:53 AM on Sunday 23 Nov 2014 (Local Time) from KMFR Reporting Station
Overcast Overcast  
Wind Chill: 42°   Ceiling: 700
Heat Index: 42°   Visibility: 9mi
Dew Point: 40°   Wind: 0mph
Humidity: 92%   Direction: NA
Pressure: 30.39"   Gusts: NA
Location:  42.2°N, 122.71°W
Report Text: KMFR 231253Z AUTO 00000KT 9SM OVC007 06/04 A3039 RMK AO2 SLP296 T00560044
Loading
Personal Weather Stations






























Interactive Weather Map New forecast layout! Learn more

10-Day Weather Forecast

Advertisements
Track Severe Weather on mobile